createdAt,value
2023-04-01T00:04:59.891Z,4.50
2023-04-01T00:10:03.430Z,4.88
2023-04-01T00:15:09.584Z,4.80
2023-04-01T00:20:13.188Z,4.57
2023-04-01T00:25:15.862Z,4.57
2023-04-01T00:30:19.259Z,5.05
2023-04-01T00:35:22.533Z,4.82
2023-04-01T00:40:38.376Z,4.80
2023-04-01T00:45:44.016Z,4.80
2023-04-01T00:50:52.122Z,4.07
2023-04-01T00:56:11.546Z,4.07
2023-04-01T01:01:14.419Z,4.88
2023-04-01T01:06:41.107Z,4.05
2023-04-01T01:11:56.729Z,3.97
2023-04-01T01:17:23.480Z,4.30
2023-04-01T01:22:54.410Z,3.75
2023-04-01T01:28:30.576Z,3.70
2023-04-01T01:33:34.420Z,4.35
2023-04-01T01:38:39.548Z,3.95
2023-04-01T01:43:45.913Z,3.67
2023-04-01T01:48:53.384Z,4.15
2023-04-01T01:53:56.495Z,3.22
2023-04-01T01:59:07.968Z,3.70
2023-04-01T02:04:13.049Z,3.30
2023-04-01T02:09:15.486Z,3.78
2023-04-01T02:14:27.949Z,3.80
2023-04-01T02:19:42.889Z,3.50
2023-04-01T02:24:47.484Z,4.63
2023-04-01T02:29:51.548Z,4.38
2023-04-01T02:34:54.187Z,3.33
2023-04-01T02:40:01.979Z,3.25
2023-04-01T02:45:06.682Z,3.40
2023-04-01T02:50:10.932Z,3.40
2023-04-01T02:55:14.097Z,3.00
2023-04-01T03:00:18.754Z,3.08
2023-04-01T03:05:21.719Z,3.13
2023-04-01T03:10:24.757Z,3.35
2023-04-01T03:15:28.153Z,2.92
2023-04-01T03:20:30.871Z,2.55
2023-04-01T03:25:33.430Z,3.25
2023-04-01T03:30:36.668Z,2.95
2023-04-01T03:35:39.336Z,3.40
2023-04-01T03:40:44.362Z,2.60
2023-04-01T03:45:52.418Z,2.78
2023-04-01T03:50:54.915Z,3.10
2023-04-01T03:55:58.897Z,3.28
2023-04-01T04:01:02.200Z,3.42
2023-04-01T04:06:06.064Z,3.28
2023-04-01T04:11:09.678Z,3.63
2023-04-01T04:16:16.341Z,3.22
2023-04-01T04:21:23.654Z,3.78
2023-04-01T04:26:26.888Z,3.22
2023-04-01T04:31:35.118Z,3.40
2023-04-01T04:36:37.628Z,3.63
2023-04-01T04:41:43.179Z,3.28
2023-04-01T04:46:46.690Z,4.28
2023-04-01T04:51:51.612Z,3.38
2023-04-01T04:56:56.423Z,2.58
2023-04-01T05:02:01.744Z,3.25
2023-04-01T05:07:05.241Z,3.22
2023-04-01T05:12:09.853Z,3.40
2023-04-01T05:17:32.800Z,3.30
2023-04-01T05:22:37.808Z,3.58
2023-04-01T05:27:41.220Z,4.60
2023-04-01T05:32:45.555Z,4.55
2023-04-01T05:37:47.938Z,4.35
2023-04-01T05:42:51.395Z,3.88
2023-04-01T05:47:54.291Z,3.50
2023-04-01T05:52:57.086Z,3.85
2023-04-01T05:58:00.503Z,4.18
2023-04-01T06:03:04.521Z,3.65
2023-04-01T06:08:18.381Z,3.78
2023-04-01T06:13:34.891Z,4.38
2023-04-01T06:18:37.441Z,4.00
2023-04-01T06:23:49.763Z,4.10
2023-04-01T06:29:17.112Z,4.78
2023-04-01T06:34:39.735Z,4.38
2023-04-01T06:40:07.734Z,3.38
2023-04-01T06:45:38.653Z,4.03
2023-04-01T06:51:21.936Z,4.10
2023-04-01T06:56:48.262Z,3.83
2023-04-01T07:02:06.401Z,4.10
2023-04-01T07:07:39.479Z,2.92
2023-04-01T07:13:36.236Z,2.92
2023-04-01T07:18:56.301Z,3.30
2023-04-01T07:24:07.897Z,2.58
2023-04-01T07:29:20.084Z,3.15
2023-04-01T07:34:40.648Z,2.88
2023-04-01T07:40:06.491Z,2.80
2023-04-01T07:45:49.262Z,1.92
2023-04-01T07:51:03.945Z,2.25
2023-04-01T07:56:13.544Z,2.63
2023-04-01T08:01:36.401Z,2.15
2023-04-01T08:07:00.856Z,2.70
2023-04-01T08:12:25.395Z,2.50
2023-04-01T08:17:47.002Z,1.90
2023-04-01T08:23:32.493Z,2.40
2023-04-01T08:28:56.044Z,1.75
2023-04-01T08:34:05.982Z,1.52
2023-04-01T08:39:14.727Z,1.40
2023-04-01T08:44:32.794Z,1.60
2023-04-01T08:49:39.098Z,1.75
2023-04-01T08:54:46.994Z,1.63
2023-04-01T09:00:15.970Z,1.60
2023-04-01T09:06:08.347Z,2.45
2023-04-01T09:11:24.481Z,2.17
2023-04-01T09:17:15.102Z,1.85
2023-04-01T09:22:37.802Z,2.55
2023-04-01T09:28:03.511Z,1.73
2023-04-01T09:33:40.301Z,1.33
2023-04-01T09:38:49.306Z,1.40
2023-04-01T09:43:58.036Z,1.52
2023-04-01T09:49:35.212Z,1.95
2023-04-01T09:54:54.753Z,2.05
2023-04-01T10:00:35.416Z,1.88
2023-04-01T10:05:59.749Z,1.40
2023-04-01T10:11:52.659Z,1.80
2023-04-01T10:17:20.934Z,1.52
2023-04-01T10:22:36.591Z,1.50
2023-04-01T10:27:46.168Z,1.80
2023-04-01T10:34:00.749Z,1.30
2023-04-01T10:39:29.325Z,1.27
2023-04-01T10:44:58.809Z,1.63
2023-04-01T10:50:16.214Z,1.50
2023-04-01T10:55:38.700Z,1.42
2023-04-01T11:01:25.005Z,1.58
2023-04-01T11:07:04.533Z,1.40
2023-04-01T11:12:07.021Z,1.38
2023-04-01T11:17:16.832Z,1.35
2023-04-01T11:22:35.813Z,2.03
2023-04-01T11:27:48.223Z,1.30
2023-04-01T11:33:14.825Z,1.70
2023-04-01T11:39:00.514Z,1.80
2023-04-01T11:44:31.762Z,1.73
2023-04-01T11:50:21.245Z,1.83
2023-04-01T11:55:52.136Z,1.48
2023-04-01T12:01:13.747Z,1.80
2023-04-01T12:06:37.119Z,2.00
2023-04-01T12:11:47.105Z,1.60
2023-04-01T12:17:03.980Z,1.80
2023-04-01T12:22:36.533Z,1.88
2023-04-01T12:27:52.114Z,1.90
2023-04-01T12:32:55.328Z,1.80
2023-04-01T12:38:21.182Z,1.50
2023-04-01T12:43:48.477Z,1.55
2023-04-01T12:49:32.991Z,2.17
2023-04-01T12:54:42.466Z,1.73
2023-04-01T13:00:04.271Z,1.95
2023-04-01T13:05:35.319Z,2.33
2023-04-01T13:11:05.207Z,1.58
2023-04-01T13:16:25.198Z,2.28
2023-04-01T13:21:33.544Z,1.60
2023-04-01T13:27:02.001Z,1.40
2023-04-01T13:32:33.378Z,1.95
2023-04-01T13:37:59.956Z,1.42
2023-04-01T13:43:16.692Z,1.80
2023-04-01T13:48:37.579Z,2.30
2023-04-01T13:53:55.690Z,1.80
2023-04-01T13:59:27.790Z,1.83
2023-04-01T14:04:49.031Z,2.20
2023-04-01T14:10:07.471Z,2.80
2023-04-01T14:15:37.388Z,2.10
2023-04-01T14:20:49.643Z,2.85
2023-04-01T14:26:05.222Z,2.53
2023-04-01T14:31:32.299Z,3.03
2023-04-01T14:37:14.165Z,2.85
2023-04-01T14:42:28.665Z,2.88
2023-04-01T14:47:58.297Z,3.60
2023-04-01T14:53:13.027Z,3.10
2023-04-01T14:58:18.331Z,4.15
2023-04-01T15:03:46.918Z,4.18
2023-04-01T15:09:01.417Z,3.75
2023-04-01T15:14:17.726Z,4.65
2023-04-01T15:19:30.480Z,3.65
2023-04-01T15:24:49.820Z,4.25
2023-04-01T15:30:19.143Z,5.72
2023-04-01T15:35:47.706Z,6.47
2023-04-01T15:41:07.508Z,7.72
2023-04-01T15:46:47.998Z,10.18
2023-04-01T15:51:54.471Z,9.40
2023-04-01T15:57:34.781Z,9.15
2023-04-01T16:03:14.748Z,7.97
2023-04-01T16:08:24.332Z,7.53
2023-04-01T16:13:55.805Z,7.10
2023-04-01T16:19:32.924Z,7.03
2023-04-01T16:24:40.916Z,7.45
2023-04-01T16:30:24.887Z,6.78
2023-04-01T16:35:45.223Z,7.93
2023-04-01T16:40:59.919Z,10.80
2023-04-01T16:46:28.596Z,9.38
2023-04-01T16:51:45.582Z,8.73
2023-04-01T16:57:03.407Z,8.73
2023-04-01T17:02:12.093Z,9.65
2023-04-01T17:07:25.603Z,9.07
2023-04-01T17:12:52.948Z,9.75
2023-04-01T17:18:24.941Z,13.20
2023-04-01T17:23:59.850Z,10.75
2023-04-01T17:29:33.231Z,9.73
2023-04-01T17:35:15.765Z,11.63
2023-04-01T17:40:37.043Z,12.25
2023-04-01T17:45:56.867Z,11.30
2023-04-01T17:51:18.900Z,10.60
2023-04-01T17:56:48.361Z,11.88
2023-04-01T18:02:06.088Z,12.48
2023-04-01T18:07:34.597Z,17.90
2023-04-01T18:12:46.531Z,16.85
2023-04-01T18:18:01.729Z,18.13
2023-04-01T18:23:29.488Z,21.02
2023-04-01T18:28:32.320Z,19.02
2023-04-01T18:33:49.042Z,18.48
2023-04-01T18:39:31.753Z,20.15
2023-04-01T18:45:03.338Z,19.95
2023-04-01T18:50:32.027Z,18.73
2023-04-01T18:55:44.359Z,19.20
2023-04-01T19:01:11.907Z,17.67
2023-04-01T19:06:21.615Z,16.38
2023-04-01T19:11:51.029Z,18.05
2023-04-01T19:17:12.327Z,15.90
2023-04-01T19:22:52.924Z,15.38
2023-04-01T19:28:18.774Z,12.07
2023-04-01T19:39:17.525Z,9.57
2023-04-01T19:44:57.397Z,10.15
2023-04-01T19:50:02.718Z,11.48
2023-04-01T19:55:14.477Z,12.55
2023-04-01T20:00:31.447Z,19.73
2023-04-01T20:05:47.597Z,22.88
2023-04-01T20:11:08.318Z,26.42
2023-04-01T20:16:13.005Z,23.35
2023-04-01T20:21:15.562Z,23.50
2023-04-01T20:26:26.592Z,23.45
2023-04-01T20:31:38.206Z,21.25
2023-04-01T20:37:03.361Z,18.45
2023-04-01T20:42:34.644Z,16.83
2023-04-01T20:47:58.484Z,15.75
2023-04-01T20:53:17.383Z,15.05
2023-04-01T20:58:46.355Z,14.65
2023-04-01T21:04:20.226Z,13.68
2023-04-01T21:09:44.773Z,11.45
2023-04-01T21:20:50.385Z,9.25
2023-04-01T21:26:03.935Z,8.85
2023-04-01T21:31:33.472Z,8.32
2023-04-01T21:37:03.846Z,8.63
2023-04-01T21:42:25.546Z,8.25
2023-04-01T21:47:31.061Z,7.43
2023-04-01T21:53:04.404Z,7.25
2023-04-01T21:58:10.197Z,6.93
2023-04-01T22:03:27.482Z,8.15
2023-04-01T22:08:43.579Z,7.13
2023-04-01T22:13:52.421Z,7.20
2023-04-01T22:19:00.354Z,6.40
2023-04-01T22:24:11.403Z,5.95
2023-04-01T22:29:37.282Z,5.40
2023-04-01T22:35:11.093Z,5.40
2023-04-01T22:40:35.747Z,4.75
2023-04-01T22:51:24.228Z,4.80
2023-04-01T22:56:41.138Z,4.20
2023-04-01T23:01:58.808Z,3.90
2023-04-01T23:07:07.361Z,4.50
2023-04-01T23:12:15.905Z,4.32
2023-04-01T23:17:51.544Z,4.05
2023-04-01T23:23:16.604Z,4.07
2023-04-01T23:28:45.340Z,3.55
2023-04-01T23:33:58.439Z,3.38
2023-04-01T23:44:28.534Z,4.20
2023-04-01T23:49:44.341Z,3.80
2023-04-01T23:54:55.213Z,4.10
